Fure West — OZ2100 — position and weather

sailwx.info

Track history (hours):
 
Tides and Currents Weather Stations Pressure Air Temp Water Temp Dewpoint Dewpoint Depression Visibility Wind Speed Wind Dir Waves Ship Positions

Fure West

Last reported at 2014-Jul-30 10:33 UTC. Time now 2014-Jul-30 11:11 UTC.
Position N 54°37' W 000°09'.

Length 144 m; draft 6 m.

Type: Tanker. MMSI: 231775000.

Date/timePositionNaut miles runAvg speedWind from/ knotsBaromVisibWave heightAir tempDewpointWater temp
2014-Jul-30 10:33N 54°37' W 000°09'1615.5
2014-Jul-30 09:33N 54°24' E 000°07'1515.1
2014-Jul-30 08:33N 54°12' E 000°22'1414.0
2014-Jul-30 07:33N 54°01' E 000°36'4613.5
2014-Jul-30 04:10N 53°20' E 001°11'915.2
2014-Jul-30 03:33N 53°13' E 001°22'1615.9
2014-Jul-30 02:33N 53°05' E 001°44'1515.1
2014-Jul-30 01:33N 52°60' E 002°08'1614.5
2014-Jul-30 00:25N 52°48' E 002°28'1214.3
2014-Jul-29 23:33N 52°39' E 002°42'1414.0
2014-Jul-29 22:33N 52°30' E 002°58'1414.4
2014-Jul-29 21:33N 52°19' E 003°15'1514.4
2014-Jul-29 20:33N 52°09' E 003°31'1414.2
2014-Jul-29 19:33N 52°03' E 003°52'1211.8
2014-Jul-29 18:33N 51°57' E 004°09'3 3.2
2014-Jul-29 17:30N 51°55' E 004°13'0 0.0
2014-Jul-29 16:33N 51°55' E 004°13'0 0.0
2014-Jul-29 15:33N 51°55' E 004°13'0 0.0
2014-Jul-29 14:33N 51°55' E 004°13'0 0.0
2014-Jul-29 13:33N 51°55' E 004°13'0 0.0
2014-Jul-29 12:30N 51°55' E 004°13'0 0.0
2014-Jul-29 11:33N 51°55' E 004°13'0 0.0
2014-Jul-29 10:30N 51°55' E 004°13'0 0.0
2014-Jul-29 09:33N 51°55' E 004°13'0 0.0
2014-Jul-29 08:33N 51°55' E 004°13'0 0.0
2014-Jul-29 06:27N 51°55' E 004°13'0 0.0
2014-Jul-29 05:27N 51°55' E 004°13'0 0.0
2014-Jul-29 04:27N 51°55' E 004°13'0 0.0
2014-Jul-29 03:33N 51°55' E 004°13'0 0.0
2014-Jul-29 02:33N 51°55' E 004°13'0 0.0
2014-Jul-29 01:18N 51°55' E 004°13'0 0.0
2014-Jul-29 00:24N 51°55' E 004°13'0 0.0
2014-Jul-28 23:27N 51°55' E 004°13'0 0.0
2014-Jul-28 22:33N 51°55' E 004°13'0 0.0
2014-Jul-28 21:33N 51°55' E 004°13'0 0.0
2014-Jul-28 20:30N 51°55' E 004°13'0 0.0
2014-Jul-28 19:30N 51°55' E 004°13'0 0.0
2014-Jul-28 18:18N 51°55' E 004°13'0 0.0
2014-Jul-28 17:24N 51°55' E 004°13'0 0.0
2014-Jul-28 16:33N 51°55' E 004°13'0 0.0
2014-Jul-28 15:33N 51°55' E 004°13'0 0.0
2014-Jul-28 14:30N 51°55' E 004°13'0 0.0
2014-Jul-28 13:28N 51°55' E 004°13'1 1.0
2014-Jul-28 12:33N 51°56' E 004°12'9 8.8
2014-Jul-28 11:33N 51°60' E 003°60'18 1.9
2014-Jul-28 02:08N 52°09' E 003°35'0 0.1
2014-Jul-28 00:30N 52°09' E 003°35'0 0.0
2014-Jul-27 23:33N 52°09' E 003°35'0 0.0
2014-Jul-27 22:30N 52°09' E 003°35'0 0.0
2014-Jul-27 21:33N 52°09' E 003°35'0 0.0
2014-Jul-27 20:32N 52°09' E 003°35'4 4.3
2014-Jul-27 19:33N 52°08' E 003°28'1212.5
2014-Jul-27 18:34N 52°19' E 003°17'1512.5
2014-Jul-27 17:19N 52°33' E 003°07'911.1
2014-Jul-27 16:30N 52°42' E 003°07'7412.1
2014-Jul-27 10:25N 53°50' E 003°56'2712.2
2014-Jul-27 08:14N 54°03' E 004°35'1111.9
2014-Jul-27 07:18N 54°04' E 004°53'912.3
2014-Jul-27 06:33N 54°05' E 005°09'1212.3
2014-Jul-27 05:32N 54°07' E 005°30'1312.9
2014-Jul-27 04:33N 54°09' E 005°52'4113.6
2014-Jul-27 01:33N 54°12' E 007°01'1313.3
2014-Jul-27 00:33N 54°12' E 007°24'1312.5
2014-Jul-26 23:33N 54°08' E 007°44'1212.4
2014-Jul-26 22:33N 54°02' E 008°02'1111.1
2014-Jul-26 21:34N 53°60' E 008°21'1111.1
2014-Jul-26 20:33N 53°57' E 008°39'1212.3
2014-Jul-26 19:33N 53°51' E 008°58'7 7.1
2014-Jul-26 18:33N 53°54' E 009°09'2 1.9
2014-Jul-26 17:33N 53°55' E 009°11'7 7.4
2014-Jul-26 16:33N 54°01' E 009°18'5 4.2
2014-Jul-26 15:26N 54°06' E 009°20'4 3.9
2014-Jul-26 14:29N 54°09' E 009°22'0 0.0
2014-Jul-26 13:33N 54°09' E 009°22'7 5.5
2014-Jul-26 12:14N 54°12' E 009°33'44 5.1
2014-Jul-26 03:31N 54°35' E 010°39'1111.6
2014-Jul-26 02:33N 54°36' E 010°58'1111.5
2014-Jul-26 01:34N 54°34' E 011°18'1211.7
2014-Jul-26 00:34N 54°29' E 011°36'1111.2
2014-Jul-25 23:33N 54°26' E 011°55'1010.4
2014-Jul-25 22:33N 54°29' E 012°12'1110.9
2014-Jul-25 21:33N 54°39' E 012°21'1211.7
2014-Jul-25 20:30N 54°45' E 012°39'2211.0
2014-Jul-25 18:32N 54°46' E 013°16'5811.5
2014-Jul-25 13:31N 54°40' E 014°56'1111.6
2014-Jul-25 12:33N 54°42' E 015°15'1211.7
2014-Jul-25 11:34N 54°44' E 015°35'1212.2
2014-Jul-25 10:33N 54°46' E 015°56'1211.7
2014-Jul-25 09:33N 54°47' E 016°16'1211.8
2014-Jul-25 08:34N 54°49' E 016°36'1211.6
2014-Jul-25 07:33N 54°51' E 016°56'1211.7
2014-Jul-25 06:33N 54°54' E 017°15'1211.7
2014-Jul-25 05:34N 54°57' E 017°35'1211.5
2014-Jul-25 04:34N 54°59' E 017°55'1211.5
2014-Jul-25 03:33N 54°59' E 018°15'1211.6
2014-Jul-25 02:33N 54°58' E 018°35'1211.5
2014-Jul-25 01:33N 54°54' E 018°54'1211.7
2014-Jul-25 00:34N 54°51' E 019°13'1111.5
2014-Jul-24 23:34N 54°46' E 019°32'1111.1
2014-Jul-24 22:34N 54°40' E 019°48'7 6.8
2014-Jul-24 21:34N 54°38' E 019°59'5 5.1
2014-Jul-24 20:33N 54°40' E 020°08'0 0.0
2014-Jul-24 02:03N 54°40' E 020°08'0 0.7
2014-Jul-24 01:34N 54°40' E 020°07'6 5.9
2014-Jul-24 00:33N 54°38' E 019°57'6 6.4
2014-Jul-23 23:33N 54°39' E 019°46'0 0.2
2014-Jul-23 22:32N 54°39' E 019°47'0 0.0
2014-Jul-23 21:29N 54°39' E 019°47'0 0.0
2014-Jul-23 20:29N 54°39' E 019°47'0 0.0
2014-Jul-23 19:32N 54°39' E 019°47'0 0.0
2014-Jul-23 18:32N 54°39' E 019°47'0 0.0
2014-Jul-23 17:29N 54°39' E 019°47'0 0.0
2014-Jul-23 16:32N 54°39' E 019°47'0 0.0
2014-Jul-23 15:32N 54°39' E 019°47'0 0.0
2014-Jul-23 14:32N 54°39' E 019°47'0 0.0
2014-Jul-23 13:32N 54°39' E 019°47'0 0.0
2014-Jul-23 12:32N 54°39' E 019°47'0 0.0
2014-Jul-23 11:32N 54°39' E 019°47'0 0.0
2014-Jul-23 10:32N 54°39' E 019°47'0 0.0
2014-Jul-23 09:32N 54°39' E 019°47'0 0.0
2014-Jul-23 08:32N 54°39' E 019°47'1 1.1
2014-Jul-23 07:33N 54°40' E 019°46'1110.9
2014-Jul-23 06:33N 54°46' E 019°30'1111.2
2014-Jul-23 05:33N 54°50' E 019°12'1110.8
2014-Jul-23 04:33N 54°53' E 018°54'1111.1
2014-Jul-23 03:33N 54°56' E 018°36'1010.4
2014-Jul-23 02:33N 54°57' E 018°17'1110.6
2014-Jul-23 01:33N 54°57' E 017°59'1110.7
2014-Jul-23 00:33N 54°55' E 017°41'1110.7
2014-Jul-22 23:33N 54°53' E 017°23'1110.5
2014-Jul-22 22:33N 54°50' E 017°05'1110.9
2014-Jul-22 21:33N 54°48' E 016°46'1111.0
2014-Jul-22 20:32N 54°46' E 016°27'1212.0
2014-Jul-22 19:33N 54°45' E 016°07'1211.9
2014-Jul-22 18:33N 54°43' E 015°47'1211.8
2014-Jul-22 17:33N 54°41' E 015°27'1211.6
2014-Jul-22 16:33N 54°39' E 015°07'1211.5
2014-Jul-22 15:33N 54°38' E 014°47'1211.6
2014-Jul-22 14:33N 54°36' E 014°27'1211.7
2014-Jul-22 13:33N 54°39' E 014°08'1212.2
2014-Jul-22 12:33N 54°42' E 013°48'1211.8
2014-Jul-22 11:33N 54°45' E 013°28'1111.5
2014-Jul-22 10:33N 54°45' E 013°08'1111.4
2014-Jul-22 09:33N 54°45' E 012°48'1111.4
2014-Jul-22 08:33N 54°40' E 012°31'1010.3
2014-Jul-22 07:33N 54°33' E 012°18'1111.3
2014-Jul-22 06:33N 54°24' E 012°04'1212.4
2014-Jul-22 05:33N 54°26' E 011°43'1212.4
2014-Jul-22 04:33N 54°31' E 011°24'1212.1
2014-Jul-22 03:33N 54°37' E 011°05'1211.2
2014-Jul-22 02:29N 54°46' E 010°52'2312.1
2014-Jul-22 00:33N 55°08' E 011°03'3511.6
2014-Jul-21 21:30N 55°43' E 010°47'1311.3
2014-Jul-21 20:21N 55°55' E 010°56'911.9
2014-Jul-21 19:33N 56°03' E 011°05'1211.8
2014-Jul-21 18:33N 56°12' E 011°17'1212.3
2014-Jul-21 17:33N 56°23' E 011°29'1312.7
2014-Jul-21 16:33N 56°34' E 011°40'1312.5
2014-Jul-21 15:29N 56°46' E 011°51'1212.4
2014-Jul-21 14:29N 56°58' E 011°44'1212.4
2014-Jul-21 13:33N 57°09' E 011°38'1312.8
2014-Jul-21 12:33N 57°21' E 011°36'1212.1
2014-Jul-21 11:33N 57°34' E 011°38'3 2.8
2014-Jul-21 10:31N 57°36' E 011°41'0 0.1
2014-Jul-21 09:31N 57°36' E 011°41'2 1.9
2014-Jul-21 08:33N 57°35' E 011°38'9 9.2
2014-Jul-21 07:33N 57°38' E 011°22'1414.3
2014-Jul-21 06:34N 57°45' E 010°58'1312.8
2014-Jul-21 05:33N 57°47' E 010°34'8 7.9
2014-Jul-21 04:34N 57°45' E 010°20'7 7.2
2014-Jul-21 03:33N 57°44' E 010°07'10 7.3
2014-Jul-21 02:08N 57°40' E 009°48'4 7.2
2014-Jul-21 01:32N 57°39' E 009°41'7 7.2
2014-Jul-21 00:33N 57°37' E 009°28'  
Track history (hours):
 
Tides and Currents Weather Stations Pressure Air Temp Water Temp Dewpoint Dewpoint Depression Visibility Wind Speed Wind Dir Waves Ship Positions

Fure West

Last reported at 2014-Jul-30 10:33 UTC. Time now 2014-Jul-30 11:11 UTC.
Position N 54°37' W 000°09'.

Length 144 m; draft 6 m.

Type: Tanker. MMSI: 231775000.

Date/timePositionNaut miles runAvg speedWind from/ knotsBaromVisibWave heightAir tempDewpointWater temp
2014-Jul-30 10:33N 54°37' W 000°09'1615.5
2014-Jul-30 09:33N 54°24' E 000°07'1515.1
2014-Jul-30 08:33N 54°12' E 000°22'1414.0
2014-Jul-30 07:33N 54°01' E 000°36'4613.5
2014-Jul-30 04:10N 53°20' E 001°11'915.2
2014-Jul-30 03:33N 53°13' E 001°22'1615.9
2014-Jul-30 02:33N 53°05' E 001°44'1515.1
2014-Jul-30 01:33N 52°60' E 002°08'1614.5
2014-Jul-30 00:25N 52°48' E 002°28'1214.3
2014-Jul-29 23:33N 52°39' E 002°42'1414.0
2014-Jul-29 22:33N 52°30' E 002°58'1414.4
2014-Jul-29 21:33N 52°19' E 003°15'1514.4
2014-Jul-29 20:33N 52°09' E 003°31'1414.2
2014-Jul-29 19:33N 52°03' E 003°52'1211.8
2014-Jul-29 18:33N 51°57' E 004°09'3 3.2
2014-Jul-29 17:30N 51°55' E 004°13'0 0.0
2014-Jul-29 16:33N 51°55' E 004°13'0 0.0
2014-Jul-29 15:33N 51°55' E 004°13'0 0.0
2014-Jul-29 14:33N 51°55' E 004°13'0 0.0
2014-Jul-29 13:33N 51°55' E 004°13'0 0.0
2014-Jul-29 12:30N 51°55' E 004°13'0 0.0
2014-Jul-29 11:33N 51°55' E 004°13'0 0.0
2014-Jul-29 10:30N 51°55' E 004°13'0 0.0
2014-Jul-29 09:33N 51°55' E 004°13'0 0.0
2014-Jul-29 08:33N 51°55' E 004°13'0 0.0
2014-Jul-29 06:27N 51°55' E 004°13'0 0.0
2014-Jul-29 05:27N 51°55' E 004°13'0 0.0
2014-Jul-29 04:27N 51°55' E 004°13'0 0.0
2014-Jul-29 03:33N 51°55' E 004°13'0 0.0
2014-Jul-29 02:33N 51°55' E 004°13'0 0.0
2014-Jul-29 01:18N 51°55' E 004°13'0 0.0
2014-Jul-29 00:24N 51°55' E 004°13'0 0.0
2014-Jul-28 23:27N 51°55' E 004°13'0 0.0
2014-Jul-28 22:33N 51°55' E 004°13'0 0.0
2014-Jul-28 21:33N 51°55' E 004°13'0 0.0
2014-Jul-28 20:30N 51°55' E 004°13'0 0.0
2014-Jul-28 19:30N 51°55' E 004°13'0 0.0
2014-Jul-28 18:18N 51°55' E 004°13'0 0.0
2014-Jul-28 17:24N 51°55' E 004°13'0 0.0
2014-Jul-28 16:33N 51°55' E 004°13'0 0.0
2014-Jul-28 15:33N 51°55' E 004°13'0 0.0
2014-Jul-28 14:30N 51°55' E 004°13'0 0.0
2014-Jul-28 13:28N 51°55' E 004°13'1 1.0
2014-Jul-28 12:33N 51°56' E 004°12'9 8.8
2014-Jul-28 11:33N 51°60' E 003°60'18 1.9
2014-Jul-28 02:08N 52°09' E 003°35'0 0.1
2014-Jul-28 00:30N 52°09' E 003°35'0 0.0
2014-Jul-27 23:33N 52°09' E 003°35'0 0.0
2014-Jul-27 22:30N 52°09' E 003°35'0 0.0
2014-Jul-27 21:33N 52°09' E 003°35'0 0.0
2014-Jul-27 20:32N 52°09' E 003°35'4 4.3
2014-Jul-27 19:33N 52°08' E 003°28'1212.5
2014-Jul-27 18:34N 52°19' E 003°17'1512.5
2014-Jul-27 17:19N 52°33' E 003°07'911.1
2014-Jul-27 16:30N 52°42' E 003°07'7412.1
2014-Jul-27 10:25N 53°50' E 003°56'2712.2
2014-Jul-27 08:14N 54°03' E 004°35'1111.9
2014-Jul-27 07:18N 54°04' E 004°53'912.3
2014-Jul-27 06:33N 54°05' E 005°09'1212.3
2014-Jul-27 05:32N 54°07' E 005°30'1312.9
2014-Jul-27 04:33N 54°09' E 005°52'4113.6
2014-Jul-27 01:33N 54°12' E 007°01'1313.3
2014-Jul-27 00:33N 54°12' E 007°24'1312.5
2014-Jul-26 23:33N 54°08' E 007°44'1212.4
2014-Jul-26 22:33N 54°02' E 008°02'1111.1
2014-Jul-26 21:34N 53°60' E 008°21'1111.1
2014-Jul-26 20:33N 53°57' E 008°39'1212.3
2014-Jul-26 19:33N 53°51' E 008°58'7 7.1
2014-Jul-26 18:33N 53°54' E 009°09'2 1.9
2014-Jul-26 17:33N 53°55' E 009°11'7 7.4
2014-Jul-26 16:33N 54°01' E 009°18'5 4.2
2014-Jul-26 15:26N 54°06' E 009°20'4 3.9
2014-Jul-26 14:29N 54°09' E 009°22'0 0.0
2014-Jul-26 13:33N 54°09' E 009°22'7 5.5
2014-Jul-26 12:14N 54°12' E 009°33'44 5.1
2014-Jul-26 03:31N 54°35' E 010°39'1111.6
2014-Jul-26 02:33N 54°36' E 010°58'1111.5
2014-Jul-26 01:34N 54°34' E 011°18'1211.7
2014-Jul-26 00:34N 54°29' E 011°36'1111.2
2014-Jul-25 23:33N 54°26' E 011°55'1010.4
2014-Jul-25 22:33N 54°29' E 012°12'1110.9
2014-Jul-25 21:33N 54°39' E 012°21'1211.7
2014-Jul-25 20:30N 54°45' E 012°39'2211.0
2014-Jul-25 18:32N 54°46' E 013°16'5811.5
2014-Jul-25 13:31N 54°40' E 014°56'1111.6
2014-Jul-25 12:33N 54°42' E 015°15'1211.7
2014-Jul-25 11:34N 54°44' E 015°35'1212.2
2014-Jul-25 10:33N 54°46' E 015°56'1211.7
2014-Jul-25 09:33N 54°47' E 016°16'1211.8
2014-Jul-25 08:34N 54°49' E 016°36'1211.6
2014-Jul-25 07:33N 54°51' E 016°56'1211.7
2014-Jul-25 06:33N 54°54' E 017°15'1211.7
2014-Jul-25 05:34N 54°57' E 017°35'1211.5
2014-Jul-25 04:34N 54°59' E 017°55'1211.5
2014-Jul-25 03:33N 54°59' E 018°15'1211.6
2014-Jul-25 02:33N 54°58' E 018°35'1211.5
2014-Jul-25 01:33N 54°54' E 018°54'1211.7
2014-Jul-25 00:34N 54°51' E 019°13'1111.5
2014-Jul-24 23:34N 54°46' E 019°32'1111.1
2014-Jul-24 22:34N 54°40' E 019°48'7 6.8
2014-Jul-24 21:34N 54°38' E 019°59'5 5.1
2014-Jul-24 20:33N 54°40' E 020°08'0 0.0
2014-Jul-24 02:03N 54°40' E 020°08'0 0.7
2014-Jul-24 01:34N 54°40' E 020°07'6 5.9
2014-Jul-24 00:33N 54°38' E 019°57'6 6.4
2014-Jul-23 23:33N 54°39' E 019°46'0 0.2
2014-Jul-23 22:32N 54°39' E 019°47'0 0.0
2014-Jul-23 21:29N 54°39' E 019°47'0 0.0
2014-Jul-23 20:29N 54°39' E 019°47'0 0.0
2014-Jul-23 19:32N 54°39' E 019°47'0 0.0
2014-Jul-23 18:32N 54°39' E 019°47'0 0.0
2014-Jul-23 17:29N 54°39' E 019°47'0 0.0
2014-Jul-23 16:32N 54°39' E 019°47'0 0.0
2014-Jul-23 15:32N 54°39' E 019°47'0 0.0
2014-Jul-23 14:32N 54°39' E 019°47'0 0.0
2014-Jul-23 13:32N 54°39' E 019°47'0 0.0
2014-Jul-23 12:32N 54°39' E 019°47'0 0.0
2014-Jul-23 11:32N 54°39' E 019°47'0 0.0
2014-Jul-23 10:32N 54°39' E 019°47'0 0.0
2014-Jul-23 09:32N 54°39' E 019°47'0 0.0
2014-Jul-23 08:32N 54°39' E 019°47'1 1.1
2014-Jul-23 07:33N 54°40' E 019°46'1110.9
2014-Jul-23 06:33N 54°46' E 019°30'1111.2
2014-Jul-23 05:33N 54°50' E 019°12'1110.8
2014-Jul-23 04:33N 54°53' E 018°54'1111.1
2014-Jul-23 03:33N 54°56' E 018°36'1010.4
2014-Jul-23 02:33N 54°57' E 018°17'1110.6
2014-Jul-23 01:33N 54°57' E 017°59'1110.7
2014-Jul-23 00:33N 54°55' E 017°41'1110.7
2014-Jul-22 23:33N 54°53' E 017°23'1110.5
2014-Jul-22 22:33N 54°50' E 017°05'1110.9
2014-Jul-22 21:33N 54°48' E 016°46'1111.0
2014-Jul-22 20:32N 54°46' E 016°27'1212.0
2014-Jul-22 19:33N 54°45' E 016°07'1211.9
2014-Jul-22 18:33N 54°43' E 015°47'1211.8
2014-Jul-22 17:33N 54°41' E 015°27'1211.6
2014-Jul-22 16:33N 54°39' E 015°07'1211.5
2014-Jul-22 15:33N 54°38' E 014°47'1211.6
2014-Jul-22 14:33N 54°36' E 014°27'1211.7
2014-Jul-22 13:33N 54°39' E 014°08'1212.2
2014-Jul-22 12:33N 54°42' E 013°48'1211.8
2014-Jul-22 11:33N 54°45' E 013°28'1111.5
2014-Jul-22 10:33N 54°45' E 013°08'1111.4
2014-Jul-22 09:33N 54°45' E 012°48'1111.4
2014-Jul-22 08:33N 54°40' E 012°31'1010.3
2014-Jul-22 07:33N 54°33' E 012°18'1111.3
2014-Jul-22 06:33N 54°24' E 012°04'1212.4
2014-Jul-22 05:33N 54°26' E 011°43'1212.4
2014-Jul-22 04:33N 54°31' E 011°24'1212.1
2014-Jul-22 03:33N 54°37' E 011°05'1211.2
2014-Jul-22 02:29N 54°46' E 010°52'2312.1
2014-Jul-22 00:33N 55°08' E 011°03'3511.6
2014-Jul-21 21:30N 55°43' E 010°47'1311.3
2014-Jul-21 20:21N 55°55' E 010°56'911.9
2014-Jul-21 19:33N 56°03' E 011°05'1211.8
2014-Jul-21 18:33N 56°12' E 011°17'1212.3
2014-Jul-21 17:33N 56°23' E 011°29'1312.7
2014-Jul-21 16:33N 56°34' E 011°40'1312.5
2014-Jul-21 15:29N 56°46' E 011°51'1212.4
2014-Jul-21 14:29N 56°58' E 011°44'1212.4
2014-Jul-21 13:33N 57°09' E 011°38'1312.8
2014-Jul-21 12:33N 57°21' E 011°36'1212.1
2014-Jul-21 11:33N 57°34' E 011°38'3 2.8
2014-Jul-21 10:31N 57°36' E 011°41'0 0.1
2014-Jul-21 09:31N 57°36' E 011°41'2 1.9
2014-Jul-21 08:33N 57°35' E 011°38'9 9.2
2014-Jul-21 07:33N 57°38' E 011°22'1414.3
2014-Jul-21 06:34N 57°45' E 010°58'1312.8
2014-Jul-21 05:33N 57°47' E 010°34'8 7.9
2014-Jul-21 04:34N 57°45' E 010°20'7 7.2
2014-Jul-21 03:33N 57°44' E 010°07'10 7.3
2014-Jul-21 02:08N 57°40' E 009°48'4 7.2
2014-Jul-21 01:32N 57°39' E 009°41'7 7.2
2014-Jul-21 00:33N 57°37' E 009°28'  

Dump ship's entire track history